createdAt,value
2023-10-20T00:01:43.627Z,18.2
2023-10-20T00:07:35.935Z,18.2
2023-10-20T00:13:27.458Z,18.1
2023-10-20T00:19:18.938Z,18.2
2023-10-20T00:25:10.801Z,18.1
2023-10-20T00:31:03.306Z,18.1
2023-10-20T00:36:55.012Z,18.1
2023-10-20T00:42:46.733Z,18.1
2023-10-20T00:48:39.577Z,18.1
2023-10-20T00:54:31.807Z,18.1
2023-10-20T01:00:24.049Z,18.1
2023-10-20T01:06:17.251Z,18.1
2023-10-20T01:12:09.125Z,18.1
2023-10-20T01:18:01.280Z,18.1
2023-10-20T01:23:53.566Z,18.1
2023-10-20T01:29:44.704Z,18.1
2023-10-20T01:35:36.653Z,18.1
2023-10-20T01:41:28.283Z,18.1
2023-10-20T01:47:21.243Z,18.1
2023-10-20T01:53:13.448Z,18.1
2023-10-20T01:59:05.396Z,18.1
2023-10-20T02:04:58.186Z,18.1
2023-10-20T02:10:34.752Z,18.1
2023-10-20T02:16:27.825Z,18.1
2023-10-20T02:22:20.418Z,18.1
2023-10-20T02:28:11.990Z,18.1
2023-10-20T02:34:04.616Z,18.1
2023-10-20T02:39:56.313Z,18.1
2023-10-20T02:45:47.583Z,18.1
2023-10-20T02:51:40.383Z,18.1
2023-10-20T02:57:32.305Z,18
2023-10-20T03:03:24.870Z,18
2023-10-20T03:09:18.353Z,18
2023-10-20T03:15:09.845Z,18
2023-10-20T03:21:01.517Z,18
2023-10-20T03:26:56.799Z,18
2023-10-20T03:32:48.678Z,18
2023-10-20T03:38:41.694Z,18
2023-10-20T03:44:33.156Z,18
2023-10-20T03:50:26.057Z,18
2023-10-20T03:56:17.547Z,18
2023-10-20T04:02:10.329Z,17.9
2023-10-20T04:07:47.363Z,17.9
2023-10-20T04:13:23.610Z,17.9
2023-10-20T04:19:02.044Z,17.9
2023-10-20T04:24:39.623Z,17.9
2023-10-20T04:30:16.212Z,17.9
2023-10-20T04:35:53.456Z,17.9
2023-10-20T04:41:30.723Z,17.9
2023-10-20T04:47:07.823Z,17.9
2023-10-20T04:52:45.829Z,17.9
2023-10-20T04:58:06.529Z,17.9
2023-10-20T05:03:43.704Z,17.9
2023-10-20T05:09:23.534Z,17.9
2023-10-20T05:14:59.234Z,17.9
2023-10-20T05:20:35.991Z,17.9
2023-10-20T05:26:11.908Z,17.9
2023-10-20T05:31:50.519Z,17.9
2023-10-20T05:37:11.799Z,17.9
2023-10-20T05:42:32.930Z,17.9
2023-10-20T05:47:53.667Z,17.9
2023-10-20T05:53:15.282Z,17.9
2023-10-20T05:58:36.466Z,17.9
2023-10-20T06:04:29.396Z,17.8
2023-10-20T06:09:50.642Z,17.9
2023-10-20T06:15:12.285Z,17.9
2023-10-20T06:21:02.880Z,17.8
2023-10-20T06:26:23.439Z,17.9
2023-10-20T06:31:45.551Z,17.8
2023-10-20T06:37:22.693Z,17.9
2023-10-20T06:42:59.391Z,17.8
2023-10-20T06:48:37.168Z,17.8
2023-10-20T06:54:29.069Z,17.8
2023-10-20T07:01:16.373Z,17.8
2023-10-20T07:07:09.029Z,17.8
2023-10-20T07:13:05.193Z,17.8
2023-10-20T07:18:58.414Z,17.9
2023-10-20T07:24:53.045Z,17.9
2023-10-20T07:30:51.554Z,17.9
2023-10-20T07:36:44.836Z,17.9
2023-10-20T07:42:37.522Z,17.9
2023-10-20T07:48:30.577Z,17.9
2023-10-20T07:54:08.088Z,17.9
2023-10-20T08:00:01.675Z,17.9
2023-10-20T08:06:01.255Z,17.9
2023-10-20T08:11:57.396Z,17.9
2023-10-20T08:17:50.851Z,17.9
2023-10-20T08:23:43.469Z,17.9
2023-10-20T08:29:36.067Z,17.9
2023-10-20T08:35:29.162Z,17.9
2023-10-20T08:41:44.768Z,17.9
2023-10-20T08:47:06.243Z,17.9
2023-10-20T08:52:46.565Z,17.9
2023-10-20T08:58:43.417Z,17.9
2023-10-20T09:04:54.292Z,17.9
2023-10-20T09:10:49.730Z,17.9
2023-10-20T09:16:45.675Z,17.9
2023-10-20T09:22:38.284Z,17.9
2023-10-20T09:28:02.500Z,17.9
2023-10-20T09:34:02.100Z,17.9
2023-10-20T09:39:40.744Z,17.9
2023-10-20T09:45:44.297Z,17.9
2023-10-20T09:51:42.549Z,17.9
2023-10-20T09:57:38.221Z,17.9
2023-10-20T10:03:32.644Z,17.9
2023-10-20T10:09:27.008Z,17.9
2023-10-20T10:15:19.513Z,17.9
2023-10-20T10:21:14.260Z,17.9
2023-10-20T10:27:18.597Z,18
2023-10-20T10:33:32.527Z,18
2023-10-20T10:39:28.325Z,18
2023-10-20T10:45:22.309Z,18
2023-10-20T10:51:24.076Z,18
2023-10-20T10:57:21.329Z,18
2023-10-20T11:03:15.974Z,18
2023-10-20T11:09:12.052Z,18
2023-10-20T11:15:04.166Z,18.1
2023-10-20T11:21:03.712Z,18.1
2023-10-20T11:26:56.829Z,18.1
2023-10-20T11:33:01.785Z,18.1
2023-10-20T11:38:53.263Z,18.1
2023-10-20T11:44:45.202Z,18.1
2023-10-20T11:50:37.845Z,18.1
2023-10-20T11:56:35.052Z,18.1
2023-10-20T12:02:27.799Z,18.1
2023-10-20T12:08:20.709Z,18.1
2023-10-20T12:13:57.245Z,18.1
2023-10-20T12:19:50.179Z,18.1
2023-10-20T12:25:26.807Z,18.2
2023-10-20T12:31:21.734Z,18.1
2023-10-20T12:37:15.762Z,18.2
2023-10-20T12:43:07.347Z,18.2
2023-10-20T12:48:45.770Z,18.2
2023-10-20T12:54:22.834Z,18.2
2023-10-20T12:59:59.141Z,18.2
2023-10-20T13:05:37.905Z,18.2
2023-10-20T13:11:26.425Z,18.3
2023-10-20T13:17:21.727Z,18.3
2023-10-20T13:22:58.343Z,18.3
2023-10-20T13:28:50.254Z,18.3
2023-10-20T13:34:46.935Z,18.3
2023-10-20T13:40:56.807Z,18.3
2023-10-20T13:46:49.545Z,18.3
2023-10-20T13:52:41.391Z,18.3
2023-10-20T13:58:34.576Z,18.3
2023-10-20T14:04:12.352Z,18.3
2023-10-20T14:09:51.449Z,18.3
2023-10-20T14:15:27.358Z,18.3
2023-10-20T14:21:03.797Z,18.3
2023-10-20T14:26:39.604Z,18.3
2023-10-20T14:32:15.832Z,18.3
2023-10-20T14:37:52.102Z,18.3
2023-10-20T14:43:31.934Z,18.3
2023-10-20T14:49:08.672Z,18.3
2023-10-20T14:55:00.187Z,18.3
2023-10-20T15:00:37.569Z,18.3
2023-10-20T15:06:47.702Z,18.3
2023-10-20T15:12:40.663Z,18.4
2023-10-20T15:18:36.944Z,18.4
2023-10-20T15:24:40.382Z,18.4
2023-10-20T15:30:33.685Z,18.4
2023-10-20T15:36:26.351Z,18.4
2023-10-20T15:42:47.281Z,18.4
2023-10-20T15:48:38.871Z,18.4
2023-10-20T15:54:31.198Z,18.4
2023-10-20T16:00:23.439Z,18.4
2023-10-20T16:06:19.642Z,18.4
2023-10-20T16:11:55.472Z,18.4
2023-10-20T16:17:46.910Z,18.4
2023-10-20T16:23:38.826Z,18.4
2023-10-20T16:29:32.441Z,18.4
2023-10-20T16:35:24.808Z,18.4
2023-10-20T16:41:16.465Z,18.4
2023-10-20T16:46:37.408Z,18.4
2023-10-20T16:52:28.706Z,18.4
2023-10-20T16:58:20.140Z,18.4
2023-10-20T17:04:13.050Z,18.4
2023-10-20T17:09:51.704Z,18.4
2023-10-20T17:15:45.214Z,18.4
2023-10-20T17:21:37.995Z,18.4
2023-10-20T17:27:29.503Z,18.4
2023-10-20T17:33:22.140Z,18.4
2023-10-20T17:39:15.003Z,18.4
2023-10-20T17:45:09.911Z,18.4
2023-10-20T17:51:02.505Z,18.4
2023-10-20T17:56:55.188Z,18.4
2023-10-20T18:02:52.260Z,18.4
2023-10-20T18:08:50.764Z,18.4
2023-10-20T18:14:43.936Z,18.4
2023-10-20T18:20:38.435Z,18.4
2023-10-20T18:26:31.966Z,18.4
2023-10-20T18:32:27.544Z,18.4
2023-10-20T18:38:20.214Z,18.4
2023-10-20T18:43:58.559Z,18.4
2023-10-20T18:49:53.829Z,18.4
2023-10-20T18:55:46.573Z,18.4
2023-10-20T19:01:40.449Z,18.4
2023-10-20T19:07:18.948Z,18.5
2023-10-20T19:13:15.313Z,18.5
2023-10-20T19:19:08.599Z,18.5
2023-10-20T19:25:04.123Z,18.5
2023-10-20T19:30:59.995Z,18.5
2023-10-20T19:36:53.810Z,18.5
2023-10-20T19:42:46.708Z,18.5
2023-10-20T19:48:40.610Z,18.5
2023-10-20T19:54:33.120Z,18.5
2023-10-20T20:00:25.893Z,18.5
2023-10-20T20:06:21.455Z,18.5
2023-10-20T20:12:13.149Z,18.5
2023-10-20T20:17:54.701Z,18.5
2023-10-20T20:23:31.065Z,18.5
2023-10-20T20:29:23.137Z,18.5
2023-10-20T20:35:15.822Z,18.5
2023-10-20T20:41:07.421Z,18.5
2023-10-20T20:47:00.865Z,18.5
2023-10-20T20:52:46.186Z,18.5
2023-10-20T20:58:38.494Z,18.5
2023-10-20T21:04:19.382Z,18.5
2023-10-20T21:09:55.599Z,18.5
2023-10-20T21:15:46.925Z,18.5
2023-10-20T21:21:24.897Z,18.5
2023-10-20T21:27:00.691Z,18.5
2023-10-20T21:32:36.449Z,18.5
2023-10-20T21:38:30.236Z,18.5
2023-10-20T21:44:06.171Z,18.5
2023-10-20T21:49:58.190Z,18.5
2023-10-20T21:55:18.776Z,18.5
2023-10-20T22:00:54.892Z,18.5
2023-10-20T22:07:01.308Z,18.5
2023-10-20T22:13:03.973Z,18.5
2023-10-20T22:18:39.504Z,18.5
2023-10-20T22:24:32.039Z,18.5
2023-10-20T22:30:26.761Z,18.5
2023-10-20T22:36:03.136Z,18.5
2023-10-20T22:41:55.540Z,18.5
2023-10-20T22:47:32.940Z,18.5
2023-10-20T22:53:27.150Z,18.5
2023-10-20T22:58:48.803Z,18.5
2023-10-20T23:04:26.505Z,18.5
2023-10-20T23:10:03.228Z,18.5
2023-10-20T23:15:54.938Z,18.5
2023-10-20T23:21:16.653Z,18.5
2023-10-20T23:26:36.898Z,18.5
2023-10-20T23:31:57.399Z,18.5
2023-10-20T23:37:50.257Z,18.5
2023-10-20T23:43:26.712Z,18.5
2023-10-20T23:49:04.045Z,18.5
2023-10-20T23:54:40.601Z,18.5
